Terminal Aerodrome Forecast
Issued by NWS Melbourne, FL

Home | Current Version | Previous Version | Text Only | Print | Product List | Glossary On
Versions: 1 2 3 4 5 6 7 8 9 10 11 12 13 14 15 16 17 18 19 20 21 22 23 24
000
FTUS42 KMLB 232321
TAFMCO
TAF
KMCO 232321Z 2400/2424 06010KT P6SM FEW050 SCT150 BKN250
     FM240200 04005KT P6SM FEW050 SCT250
     FM241400 04010KT P6SM SCT035 SCT250
     FM241800 05013G19KT P6SM VCSH SCT040 BKN120
     FM242000 05015G22KT P6SM VCTS SCT045CB SCT070 BKN250=

USA.gov is the U.S. government's official web portal to all federal, state and local government web resources and services.